This is the latest recevied weather packets stored in our database for station/object SQ8SW-4. If no packets are shown the sender has not sent any weather packets the latest 10 day(s).
| Time | Temp. | Humidity | Pressure | Rain* | Wind** | Luminosity | Snow |
|---|---|---|---|---|---|---|---|
| 1777516450 | 0° C | 77% | 1001 hPa | - | - | - | - |
| 1777515548 | 0° C | 77% | 1001 hPa | - | - | - | - |
| 1777514646 | 0° C | 77% | 1001 hPa | - | - | - | - |
| 1777513744 | 0° C | 76% | 1001 hPa | - | - | - | - |
| 1777512841 | 0° C | 76% | 1001 hPa | - | - | - | - |
| 1777511939 | 0.56° C | 76% | 1001 hPa | - | - | - | - |
| 1777511037 | 0.56° C | 75% | 1001 hPa | - | - | - | - |
| 1777510135 | 1.11° C | 73% | 1001 hPa | - | - | - | - |
| 1777509232 | 1.11° C | 72% | 1001 hPa | - | - | - | - |
| 1777508330 | 1.11° C | 72% | 1001 hPa | - | - | - | - |
| 1777507428 | 1.11° C | 73% | 1001 hPa | - | - | - | - |
| 1777506526 | 1.11° C | 73% | 1001 hPa | - | - | - | - |
| 1777502014 | 1.67° C | 68% | 1000 hPa | - | - | - | - |
| 1777501112 | 2.22° C | 67% | 1000 hPa | - | - | - | - |
| 1777500210 | 2.22° C | 66% | 1000 hPa | - | - | - | - |
| 1777499308 | 2.78° C | 64% | 1000 hPa | - | - | - | - |
| 1777496600 | 3.33° C | 62% | 1000 hPa | - | - | - | - |
| 1777494796 | 4.44° C | 57% | 999 hPa | - | - | - | - |
| 1777492991 | 5° C | 54% | 999 hPa | - | - | - | - |
| 1777492089 | 5° C | 52% | 999 hPa | - | - | - | - |
| 1777491187 | 5.56° C | 51% | 999 hPa | - | - | - | - |
| 1777490284 | 5.56° C | 50% | 999 hPa | - | - | - | - |
| 1777486676 | 6.67° C | 47% | 998 hPa | - | - | - | - |
| 1777483969 | 8.89° C | 43% | 997 hPa | - | - | - | - |
| 1777483066 | 10.56° C | 39% | 997 hPa | - | - | - | - |
* Rain since midnight (hover to see other rain measurements)
** Current wind speed in m/s (hover to see current wind gust speed)